Flight Track Log - Related Links

Times and Time Zones

All times are in EDT time to prevent confusion due to time zone crossing. See the N528QS flight status page for this flight to view local times or setup timezone preferences in your user account.

Time Position Orientation Groundspeed Altitude Reporting Facility
EDT Latitude Longitude Course Direction KTS MPH feet Rate Location/Type
Tue 09:37:00 AM 41.4657 -73.0371 51° Northeast  Level Estimated
Tue 09:38:00 AM 41.5127 -72.9575 52° Northeast  Level Estimated
Tue 09:39:00 AM 41.5596 -72.8778 52° Northeast  Level Estimated
Tue 09:40:00 AM 41.6064 -72.7981 52° Northeast  Level Estimated
Tue 09:41:00 AM 41.6533 -72.7182 52° Northeast  Level Estimated
Tue 09:42:00 AM 41.7000 -72.6381 52° Northeast  Level Estimated
Tue 09:43:00 AM 41.7467 -72.5580 52° Northeast  Level Estimated
Tue 09:44:00 AM 41.7933 -72.4778 52° Northeast  Level Estimated
Tue 09:45:00 AM 41.8399 -72.3974 52° Northeast  Level Estimated
Tue 09:46:00 AM 41.8865 -72.3169 52° Northeast  Level Estimated
Tue 09:47:00 AM 41.9337 -72.2350 52° Northeast  Level Estimated
Tue 09:48:00 AM 41.9809 -72.1529 52° Northeast  Level Estimated
Tue 09:49:00 AM 42.0289 -72.0691 52° Northeast  Level Estimated
Tue 09:50:00 AM 42.0769 -71.9852 52° Northeast  Level Estimated
Tue 09:51:00 AM 42.1249 -71.9012 52° Northeast  Level Estimated
Tue 09:52:00 AM 42.1727 -71.8170 52° Northeast  Level Estimated
Tue 09:53:00 AM 42.2206 -71.7326 53° Northeast  Level Estimated
Tue 09:54:00 AM 42.2684 -71.6480 53° Northeast  Level Estimated
Tue 09:55:00 AM 42.3162 -71.5633 53° Northeast  Level Estimated
Tue 09:56:00 AM 42.3639 -71.4785 53° Northeast  Level Estimated
Tue 09:57:00 AM 42.4115 -71.3935 53° Northeast  Level Estimated
Tue 09:58:00 AM 42.4591 -71.3084 53° Northeast  Level Estimated
Tue 09:59:00 AM 42.4699 -71.2890 53° Northeast  Level Estimated
Tue 10:00:00 AM 42.4699 -71.2890 North  Level Estimated
Tue 10:01:00 AM 42.4699 -71.2890 North  Level Estimated

Login

Don't have an account? Register now (free) for customized features, flight alerts, and more!